< < Back
Terminal Aerodrome Forecast


Current Version              Previous Versions:   1  2  3  4  5  6  7  8  9  

Terminal Aerodrome Forecast

523
FTAK31 PAJN 301100
TAFAGS
TAF
PAGS 301138Z 3012/3112 32008KT P6SM VCSH OVC050
     FM301400 34007KT 5SM -RA FEW015 OVC040
     FM302000 34005KT 6SM -RA BR BKN025 OVC035
     FM310200 15006KT P6SM -SHRA SCT015 OVC025
     FM310600 VRB05KT 6SM BR VCSH SCT010 OVC025
      AMD NOT SKED=



Latest METAR

242
SAUS70 KWBC 301600 RRH
MTRAGS
METAR KAGS 301553Z 06011KT 10SM CLR 21/07 A3004 RMK AO2 SLP169
T02060067


USA.gov is the U.S. government's official web portal to all federal, state and local government web resources and services.